Terminal Aerodrome Forecast
Issued by NWS

Home | Current Version | Previous Version | Graphics & Text | Print | Product List | Glossary On
Versions: 1 2 3 4 5 6 7 8 9 10 11
000
FTUS45 KGGW 161730
TAFGDV
TAF
KGDV 161730Z 1618/1718 24015KT P6SM BKN090
     FM162200 26013KT P6SM BKN070
     FM170100 25008KT P6SM -SHSN BKN080
     FM170300 24007KT P6SM BKN030
     FM170900 33009KT P6SM BKN015=

USA.gov is the U.S. government's official web portal to all federal, state and local government web resources and services.